Terminal Aerodrome Forecast
Issued by NWS Wichita, KS

Home | Current Version | Previous Version | Graphics & Text | Print | Product List | Glossary On
Versions: 1 2 3 4 5 6 7 8 9 10 11 12 13 14 15 16 17 18
000
FTUS43 KICT 220520
TAFICT
TAF
KICT 220520Z 2206/2306 19005KT P6SM VCSH BKN090
     FM220700 04014G20KT P6SM VCSH BKN090
     FM221000 07013KT P6SM SCT050 SCT090=

USA.gov is the U.S. government's official web portal to all federal, state and local government web resources and services.